ENSD/SDN METAR and TAF weather

Enter ICAO airport designator
Station Type Date Time Source
ENSD METAR 2021/07/29 08:50 UTC NOAA

ENSD 290850Z VRB03KT CAVOK 20/15 Q0997 RMK WIND 1138FT VRB02KT


Station Type Date Time Source
ENSD Decoded METAR 2021/07/29 08:50 UTC NOAA

Sandane / Anda, Norway (ENSD) 61-50N 006-07E 60M
Jul 29, 2021 - 04:50 AM EDT / 2021.07.29 0850 UTC
Wind: Variable at 3 MPH (3 KT):0
Visibility: greater than 7 mile(s):0
Temperature: 68 F (20 C)
Dew Point: 59 F (15 C)
Relative Humidity: 72%
Pressure (altimeter): 29.44 in. Hg (0997 hPa)
ob: ENSD 290850Z VRB03KT CAVOK 20/15 Q0997 RMK WIND 1138FT VRB02KT
cycle: 9

Station Type Date Time Source
ENSD TAF UTC NOAA

Error!

Example: see airport list